Time;durP1;ratioP1;P1;durP2;ratioP2;P2;SDS_P1;SDS_P2;PMS_P1;PMS_P2;Temp;Humidity;BMP_temperature;BMP_pressure;BME280_temperature;BME280_humidity;BME280_pressure;Samples;Min_cycle;Max_cycle;Signal;HPM_P1;HPM_P2
2022/10/10 00:00:10;;;;;;;16.63;14.90;;;;;;;14.53;88.60;95581.00;5116192;28;20478;-76
2022/10/10 00:02:39;;;;;;;23.67;16.67;;;;;;;14.52;88.78;95581.97;5116283;28;20450;-76
2022/10/10 00:05:06;;;;;;;18.13;15.13;;;;;;;14.53;89.07;95583.66;5116345;28;20439;-76
2022/10/10 00:07:33;;;;;;;22.80;15.60;;;;;;;14.51;89.04;95584.75;5115996;28;20450;-76
2022/10/10 00:10:00;;;;;;;16.87;15.17;;;;;;;14.51;88.84;95582.13;5116094;28;20461;-77
2022/10/10 00:12:26;;;;;;;20.83;16.10;;;;;;;14.54;88.87;95595.06;5063157;28;20504;-76
2022/10/10 00:14:53;;;;;;;16.20;14.50;;;;;;;14.51;89.08;95588.25;5079965;28;20441;-76
2022/10/10 00:17:20;;;;;;;19.13;14.60;;;;;;;14.51;89.22;95590.03;5115879;28;20455;-76
2022/10/10 00:19:48;;;;;;;15.83;13.87;;;;;;;14.50;89.16;95591.03;5115745;28;20485;-77
2022/10/10 00:22:15;;;;;;;17.10;14.57;;;;;;;14.49;88.89;95592.81;5115767;28;20465;-76
2022/10/10 00:24:42;;;;;;;15.93;14.30;;;;;;;14.46;88.69;95586.97;5115693;28;20909;-76
2022/10/10 00:27:08;;;;;;;18.17;14.73;;;;;;;14.43;88.92;95581.94;5115553;28;20454;-77
2022/10/10 00:29:35;;;;;;;17.20;14.27;;;;;;;14.39;89.21;95586.63;5079484;28;20492;-76
2022/10/10 00:32:02;;;;;;;23.50;15.60;;;;;;;14.37;89.53;95590.38;5115811;28;20442;-76
2022/10/10 00:34:29;;;;;;;17.23;14.60;;;;;;;14.35;89.17;95584.41;5114315;28;20454;-77
2022/10/10 00:36:57;;;;;;;16.30;14.70;;;;;;;14.34;89.20;95580.09;5062906;28;20443;-77
2022/10/10 00:39:23;;;;;;;17.23;15.00;;;;;;;14.35;89.09;95587.06;5115402;28;20543;-76
2022/10/10 00:41:50;;;;;;;17.97;15.00;;;;;;;14.32;89.27;95585.53;5115281;28;20841;-76
2022/10/10 00:44:17;;;;;;;18.30;13.60;;;;;;;14.31;89.36;95580.38;5115426;28;20530;-77
2022/10/10 00:46:44;;;;;;;15.73;14.10;;;;;;;14.28;89.43;95578.84;5115467;28;20442;-77
2022/10/10 00:49:15;;;;;;;18.20;15.67;;;;;;;14.21;89.94;95580.38;5115372;28;20918;-77
2022/10/10 00:51:43;;;;;;;18.97;14.30;;;;;;;14.17;90.15;95582.44;5115122;28;20485;-77
2022/10/10 00:54:14;;;;;;;17.83;14.97;;;;;;;14.17;90.24;95592.16;5115059;28;20447;-77
2022/10/10 00:56:48;;;;;;;16.73;14.40;;;;;;;14.11;90.50;95582.97;5115250;28;20435;-77
2022/10/10 00:59:15;;;;;;;19.27;15.90;;;;;;;14.09;90.58;95590.19;5115170;28;20483;-77
2022/10/10 01:01:42;;;;;;;19.33;16.03;;;;;;;14.11;90.41;95592.69;5115018;28;20446;-77
2022/10/10 01:04:31;;;;;;;18.23;16.33;;;;;;;14.11;90.58;95601.44;5079020;28;20897;-77
2022/10/10 01:06:59;;;;;;;17.90;15.43;;;;;;;14.11;91.16;95603.25;5114817;28;20443;-77
2022/10/10 01:09:28;;;;;;;16.77;15.03;;;;;;;14.10;91.13;95596.28;5114798;28;20507;-77
2022/10/10 01:12:08;;;;;;;20.00;17.00;;;;;;;14.10;90.89;95591.84;5114792;28;20446;-77
2022/10/10 01:14:41;;;;;;;16.87;15.17;;;;;;;14.11;90.77;95600.59;5114976;28;20500;-77
2022/10/10 01:17:18;;;;;;;17.13;15.37;;;;;;;14.10;90.75;95601.56;5114590;28;20450;-77
2022/10/10 01:20:18;;;;;;;17.93;15.40;;;;;;;14.09;91.00;95608.66;5114368;28;20495;-76
2022/10/10 01:22:58;;;;;;;21.20;15.87;;;;;;;14.11;90.66;95606.72;5111635;28;20463;-76
2022/10/10 01:25:30;;;;;;;17.20;15.40;;;;;;;14.12;90.29;95607.53;5114384;28;20443;-76
2022/10/10 01:28:01;;;;;;;23.30;16.33;;;;;;;14.09;90.46;95606.00;5114596;28;20447;-76
2022/10/10 01:30:30;;;;;;;18.20;13.77;;;;;;;14.09;90.48;95613.09;5114474;28;20549;-77
2022/10/10 01:33:04;;;;;;;20.13;15.10;;;;;;;14.03;90.51;95611.00;5114611;28;20481;-76
2022/10/10 01:35:41;;;;;;;21.10;15.07;;;;;;;14.01;90.54;95603.22;5114683;28;20503;-76
2022/10/10 01:38:20;;;;;;;17.63;15.30;;;;;;;14.00;90.79;95603.34;5114321;28;20451;-76
2022/10/10 01:40:51;;;;;;;15.63;14.00;;;;;;;14.05;90.29;95604.63;5113846;28;20577;-76
2022/10/10 01:43:18;;;;;;;22.67;15.20;;;;;;;14.08;90.14;95608.78;5061148;28;20423;-77
2022/10/10 01:45:48;;;;;;;15.87;14.17;;;;;;;14.11;89.82;95611.16;5077870;28;20446;-77
2022/10/10 01:48:21;;;;;;;16.40;14.90;;;;;;;14.06;90.07;95606.28;5114160;28;20443;-76
2022/10/10 01:51:09;;;;;;;18.93;17.03;;;;;;;14.02;90.03;95599.59;5113636;28;20823;-76
2022/10/10 01:53:43;;;;;;;15.33;13.77;;;;;;;13.86;90.80;95592.16;5072882;28;20440;-77
2022/10/10 01:56:21;;;;;;;15.33;13.70;;;;;;;13.90;90.51;95603.31;5072998;28;20441;-77
2022/10/10 01:59:06;;;;;;;23.20;17.03;;;;;;;13.87;90.94;95590.38;5072947;28;20452;-76
2022/10/10 02:01:45;;;;;;;18.13;15.10;;;;;;;13.86;90.91;95596.63;5072704;28;20441;-77
2022/10/10 02:04:20;;;;;;;16.90;15.00;;;;;;;13.85;91.22;95593.13;5072578;28;20448;-77
2022/10/10 02:06:52;;;;;;;20.37;15.77;;;;;;;13.84;90.70;95598.56;5038740;28;20501;-77
2022/10/10 02:09:24;;;;;;;16.70;14.90;;;;;;;13.78;91.15;95591.16;5072333;28;20441;-77
2022/10/10 02:11:51;;;;;;;21.83;15.30;;;;;;;13.77;91.61;95595.63;5072798;28;20448;-77
2022/10/10 02:14:20;;;;;;;15.77;14.03;;;;;;;13.78;91.70;95594.66;5072449;28;20440;-77
2022/10/10 02:16:52;;;;;;;17.13;14.90;;;;;;;13.80;91.69;95599.78;5072148;28;20452;-76
2022/10/10 02:19:22;;;;;;;27.80;14.90;;;;;;;13.74;91.67;95602.97;5037346;28;20449;-77
2022/10/10 02:21:51;;;;;;;16.13;14.43;;;;;;;13.78;91.53;95607.00;5072525;28;20447;-77
2022/10/10 02:24:19;;;;;;;22.00;16.30;;;;;;;13.80;91.32;95611.19;5072353;28;20440;-77
2022/10/10 02:26:52;;;;;;;16.87;15.10;;;;;;;13.75;90.97;95596.72;5072481;28;20441;-76
2022/10/10 02:29:24;;;;;;;18.03;14.93;;;;;;;13.78;91.35;95610.47;5072586;28;20468;-76
2022/10/10 02:31:59;;;;;;;19.40;15.83;;;;;;;13.71;91.58;95611.97;5072081;28;20445;-77
2022/10/10 02:34:32;;;;;;;17.73;14.97;;;;;;;13.73;91.38;95601.28;5072409;28;20452;-77
2022/10/10 02:37:03;;;;;;;16.33;14.60;;;;;;;13.74;91.42;95602.97;5071944;28;20930;-77
2022/10/10 02:39:34;;;;;;;16.10;14.60;;;;;;;13.75;91.43;95608.09;5072150;28;20777;-76
2022/10/10 02:42:02;;;;;;;17.03;15.23;;;;;;;13.78;91.18;95605.19;5072013;28;20439;-77
2022/10/10 02:44:30;;;;;;;17.90;14.70;;;;;;;13.76;91.04;95614.22;5036419;28;20441;-77
2022/10/10 02:46:58;;;;;;;16.63;14.97;;;;;;;13.78;91.03;95607.00;5072039;28;20451;-76
2022/10/10 02:49:27;;;;;;;16.03;14.20;;;;;;;13.77;91.21;95613.25;5072003;28;20445;-77
2022/10/10 02:51:54;;;;;;;18.53;13.57;;;;;;;13.72;91.41;95607.53;5088758;28;20486;-77
2022/10/10 02:54:21;;;;;;;18.50;15.93;;;;;;;13.68;91.65;95601.69;5112801;28;20440;-77
2022/10/10 02:56:48;;;;;;;25.60;14.10;;;;;;;13.60;91.82;95605.00;5112292;28;20439;-77
2022/10/10 02:59:15;;;;;;;16.87;15.10;;;;;;;13.61;91.88;95604.03;5111982;28;20443;-76
2022/10/10 03:01:41;;;;;;;16.57;14.97;;;;;;;13.58;91.61;95604.25;5112462;28;20553;-76
2022/10/10 03:04:10;;;;;;;18.07;14.30;;;;;;;13.50;92.13;95603.25;5112539;28;20442;-77
2022/10/10 03:06:37;;;;;;;18.30;13.83;;;;;;;13.48;92.42;95605.19;5112282;28;20438;-77
2022/10/10 03:09:04;;;;;;;16.20;13.40;;;;;;;13.42;92.19;95606.53;5112149;28;20968;-76
2022/10/10 03:11:31;;;;;;;16.30;14.60;;;;;;;13.46;92.53;95612.38;5112380;28;20449;-76
2022/10/10 03:13:58;;;;;;;16.50;12.97;;;;;;;13.45;92.50;95606.28;5112303;28;20935;-77
2022/10/10 03:16:24;;;;;;;14.97;13.40;;;;;;;13.43;92.44;95612.66;5111896;28;20496;-76
2022/10/10 03:18:51;;;;;;;17.10;15.00;;;;;;;13.40;92.37;95613.75;5112197;28;20443;-77
2022/10/10 03:21:19;;;;;;;16.30;14.50;;;;;;;13.39;92.49;95614.72;5059103;28;20527;-77
2022/10/10 03:23:46;;;;;;;16.07;14.47;;;;;;;13.36;92.42;95612.34;5112335;28;20488;-76
2022/10/10 03:26:13;;;;;;;17.77;14.47;;;;;;;13.41;92.55;95614.59;5112207;28;20435;-77
2022/10/10 03:28:40;;;;;;;15.10;13.50;;;;;;;13.35;92.58;95620.38;5112073;28;20446;-77
2022/10/10 03:31:06;;;;;;;20.17;16.20;;;;;;;13.39;92.55;95620.00;5112077;28;20943;-77
2022/10/10 03:33:34;;;;;;;23.87;15.37;;;;;;;13.39;92.26;95630.53;5076107;28;20435;-76
2022/10/10 03:36:01;;;;;;;17.83;14.17;;;;;;;13.32;92.72;95621.47;5110634;28;20462;-76
2022/10/10 03:38:29;;;;;;;18.40;14.90;;;;;;;13.35;92.56;95621.22;5111848;28;20500;-76
2022/10/10 03:40:56;;;;;;;16.07;14.40;;;;;;;13.31;92.41;95615.38;5111615;28;20954;-76
2022/10/10 03:43:22;;;;;;;17.20;15.40;;;;;;;13.31;92.27;95615.38;5111574;28;20856;-76
2022/10/10 03:45:49;;;;;;;19.00;14.70;;;;;;;13.35;92.09;95612.47;5075814;28;20815;-77
2022/10/10 03:48:16;;;;;;;15.07;13.50;;;;;;;13.35;92.01;95615.94;5111982;28;21019;-77
2022/10/10 03:50:43;;;;;;;19.53;16.70;;;;;;;13.32;92.13;95621.47;5111689;28;20851;-78
2022/10/10 03:53:10;;;;;;;17.97;14.50;;;;;;;13.32;91.84;95618.84;5059119;28;20980;-76
2022/10/10 03:55:41;;;;;;;16.90;15.10;;;;;;;13.33;91.88;95621.34;5111789;28;20455;-77
2022/10/10 03:58:08;;;;;;;17.53;15.63;;;;;;;13.32;92.16;95614.41;5111660;28;20922;-77
2022/10/10 04:00:35;;;;;;;20.77;15.00;;;;;;;13.30;92.12;95618.13;5111753;28;21045;-76
2022/10/10 04:03:05;;;;;;;23.50;13.50;;;;;;;13.26;92.43;95617.53;5112101;28;20804;-77
2022/10/10 04:05:33;;;;;;;16.83;14.17;;;;;;;13.28;92.06;95617.41;5111452;28;20451;-77
2022/10/10 04:08:00;;;;;;;18.60;15.70;;;;;;;13.32;91.82;95618.84;5111495;28;20874;-77
2022/10/10 04:10:27;;;;;;;17.47;14.47;;;;;;;13.33;91.42;95620.50;5115286;28;21054;-77
2022/10/10 04:12:55;;;;;;;17.47;14.00;;;;;;;13.35;91.14;95625.66;5115663;28;20450;-77
2022/10/10 04:15:22;;;;;;;18.90;15.57;;;;;;;13.34;91.64;95622.19;5115253;28;20442;-77
2022/10/10 04:17:49;;;;;;;15.90;14.20;;;;;;;13.33;91.34;95631.06;5115342;28;20798;-76
2022/10/10 04:20:16;;;;;;;21.83;15.17;;;;;;;13.31;91.08;95630.34;5114946;28;20522;-77
2022/10/10 04:22:43;;;;;;;19.77;16.33;;;;;;;13.07;91.19;95633.19;5114919;28;20449;-76
2022/10/10 04:25:11;;;;;;;17.33;15.50;;;;;;;13.05;90.91;95629.00;5115227;28;20447;-77
2022/10/10 04:27:38;;;;;;;21.13;17.27;;;;;;;13.01;91.27;95638.97;5115058;28;20474;-77
2022/10/10 04:30:08;;;;;;;19.47;16.17;;;;;;;12.78;91.41;95635.59;5114957;28;20438;-76
2022/10/10 04:32:35;;;;;;;24.40;17.83;;;;;;;12.53;93.23;95639.34;5114815;28;20437;-76
2022/10/10 04:35:01;;;;;;;22.17;16.60;;;;;;;12.50;92.78;95636.97;5114769;28;20461;-77
2022/10/10 04:37:28;;;;;;;28.97;21.30;;;;;;;12.03;95.63;95632.84;5114696;28;20945;-76
2022/10/10 04:39:55;;;;;;;34.63;21.73;;;;;;;11.91;95.85;95632.03;5114463;28;20874;-76
2022/10/10 04:42:22;;;;;;;32.83;22.17;;;;;;;11.93;96.24;95637.16;5115343;28;20860;-76
2022/10/10 04:44:49;;;;;;;39.70;24.80;;;;;;;11.82;96.36;95642.41;5114594;28;20450;-76
2022/10/10 04:47:17;;;;;;;38.67;22.30;;;;;;;11.95;96.21;95635.25;5114781;28;20472;-77
2022/10/10 04:49:44;;;;;;;32.30;21.57;;;;;;;12.05;96.63;95638.81;5114517;28;20456;-77
2022/10/10 04:52:12;;;;;;;28.07;21.80;;;;;;;12.15;96.36;95650.31;5114302;28;20481;-76
2022/10/10 04:54:39;;;;;;;46.17;23.53;;;;;;;12.26;95.21;95645.03;5114442;28;20449;-76
2022/10/10 04:57:06;;;;;;;36.03;22.70;;;;;;;12.35;95.47;95646.91;5061676;28;20451;-76
2022/10/10 04:59:33;;;;;;;30.63;20.97;;;;;;;12.42;95.77;95631.47;5114629;28;20439;-77
2022/10/10 05:02:00;;;;;;;34.37;22.80;;;;;;;12.45;95.64;95635.69;5106213;28;20493;-77
2022/10/10 05:04:28;;;;;;;24.43;17.60;;;;;;;12.53;95.10;95634.09;5042416;28;20458;-77
2022/10/10 05:06:55;;;;;;;22.10;18.13;;;;;;;12.65;95.21;95642.78;5094899;28;20457;-76
2022/10/10 05:09:21;;;;;;;23.00;16.90;;;;;;;12.74;94.85;95643.88;5094208;28;20447;-76
2022/10/10 05:11:48;;;;;;;25.13;18.40;;;;;;;12.91;95.16;95653.84;5094873;28;20447;-76
2022/10/10 05:14:15;;;;;;;34.07;18.50;;;;;;;13.30;95.10;95647.13;5094452;28;20452;-77
2022/10/10 05:16:42;;;;;;;25.20;16.27;;;;;;;13.90;92.11;95659.56;5094495;28;20830;-77
2022/10/10 05:19:08;;;;;;;33.37;17.90;;;;;;;14.54;88.66;95663.72;5094562;28;20798;-76
2022/10/10 05:21:37;;;;;;;35.20;22.40;;;;;;;14.90;83.53;95674.63;5093861;28;20970;-76
2022/10/10 05:24:04;;;;;;;36.43;24.03;;;;;;;15.43;81.84;95678.53;5096071;28;20462;-77
2022/10/10 05:26:31;;;;;;;44.27;22.17;;;;;;;15.84;79.14;95679.19;5113569;28;20470;-77
2022/10/10 05:28:58;;;;;;;25.83;19.27;;;;;;;16.13;78.03;95673.81;5104970;28;20441;-76
2022/10/10 05:31:24;;;;;;;34.70;18.87;;;;;;;16.56;76.04;95685.66;5109519;28;20763;-76
2022/10/10 05:33:51;;;;;;;26.63;17.43;;;;;;;16.70;74.89;95691.31;5100257;28;20462;-77
2022/10/10 05:36:18;;;;;;;36.83;27.60;;;;;;;16.56;74.86;95691.78;5114779;28;20449;-77
2022/10/10 05:38:46;;;;;;;32.90;25.70;;;;;;;16.65;74.81;95698.84;5114348;28;20442;-77
2022/10/10 05:41:13;;;;;;;44.30;33.40;;;;;;;16.89;74.85;95705.44;5113902;28;20813;-77
2022/10/10 05:43:39;;;;;;;49.80;27.30;;;;;;;17.09;73.09;95703.53;5113758;28;20932;-77
2022/10/10 05:46:06;;;;;;;27.23;22.53;;;;;;;17.24;71.88;95705.47;5114295;28;20436;-77
2022/10/10 05:48:33;;;;;;;28.20;23.53;;;;;;;17.48;71.25;95704.88;5093657;28;20459;-78
2022/10/10 05:51:01;;;;;;;58.70;24.17;;;;;;;17.77;71.31;95711.78;5102321;28;20559;-78
2022/10/10 05:53:29;;;;;;;24.33;21.27;;;;;;;18.09;70.29;95705.88;5112798;28;20521;-78
2022/10/10 05:55:57;;;;;;;26.37;22.30;;;;;;;18.33;68.57;95708.69;5110044;28;20459;-78
2022/10/10 05:58:25;;;;;;;22.50;18.83;;;;;;;18.45;68.39;95706.59;5098243;28;20878;-79
2022/10/10 06:00:52;;;;;;;22.57;17.37;;;;;;;18.63;67.99;95709.22;5077703;28;20486;-77
2022/10/10 06:03:19;;;;;;;24.70;19.60;;;;;;;18.80;67.54;95708.28;5073663;28;20448;-77
2022/10/10 06:05:48;;;;;;;32.90;19.57;;;;;;;18.73;66.58;95716.06;5100752;28;20575;-78
2022/10/10 06:08:15;;;;;;;24.23;20.03;;;;;;;18.65;67.61;95715.19;5093573;28;20530;-78
2022/10/10 06:10:44;;;;;;;30.00;19.70;;;;;;;18.80;68.36;95710.94;5093578;28;20447;-77
2022/10/10 06:13:15;;;;;;;22.33;19.17;;;;;;;19.02;67.65;95714.84;5093385;28;20452;-77
2022/10/10 06:15:42;;;;;;;25.60;20.70;;;;;;;18.99;67.21;95723.97;5093381;28;20973;-78
2022/10/10 06:18:09;;;;;;;28.43;19.00;;;;;;;19.13;66.95;95720.69;5093342;28;20907;-77
2022/10/10 06:20:36;;;;;;;31.07;19.23;;;;;;;19.28;66.96;95718.22;5093308;28;20444;-78
2022/10/10 06:23:04;;;;;;;23.73;19.67;;;;;;;19.23;66.41;95719.72;5093154;28;20469;-77
2022/10/10 06:25:32;;;;;;;31.30;20.00;;;;;;;19.17;66.14;95723.88;5093610;28;20455;-79
2022/10/10 06:27:59;;;;;;;32.23;19.23;;;;;;;19.21;67.72;95716.38;5093174;28;20781;-79
2022/10/10 06:30:28;;;;;;;30.40;19.90;;;;;;;19.40;67.60;95724.09;5057766;28;20439;-79
2022/10/10 06:32:56;;;;;;;26.43;18.07;;;;;;;19.63;70.52;95724.28;5092223;28;20621;-78
2022/10/10 06:35:22;;;;;;;25.37;18.40;;;;;;;19.68;69.27;95717.50;5092824;28;20459;-79
2022/10/10 06:37:49;;;;;;;26.30;19.53;;;;;;;19.96;66.38;95725.16;5092383;28;20444;-78
2022/10/10 06:40:16;;;;;;;24.40;19.70;;;;;;;19.72;65.77;95729.47;5092783;28;20443;-78
2022/10/10 06:42:43;;;;;;;39.83;21.80;;;;;;;19.50;65.90;95722.94;5092546;28;20484;-78
2022/10/10 06:45:10;;;;;;;22.43;20.03;;;;;;;19.20;66.90;95723.53;5092302;28;20447;-79
2022/10/10 06:47:38;;;;;;;25.00;19.17;;;;;;;18.80;68.20;95726.91;5093010;28;20450;-79
2022/10/10 06:50:05;;;;;;;28.83;19.90;;;;;;;18.73;70.98;95720.53;5093460;28;20440;-79
2022/10/10 06:52:32;;;;;;;24.60;20.37;;;;;;;18.60;70.26;95728.09;5057376;28;20978;-79
2022/10/10 06:54:59;;;;;;;21.77;18.77;;;;;;;18.57;70.72;95727.44;5093445;28;20976;-80
2022/10/10 06:57:27;;;;;;;26.03;20.00;;;;;;;18.50;71.10;95731.72;5093375;28;20448;-79
2022/10/10 06:59:54;;;;;;;24.80;19.97;;;;;;;18.39;72.36;95728.47;5093660;28;20459;-79
2022/10/10 07:02:22;;;;;;;28.83;20.77;;;;;;;18.23;72.28;95732.72;5098499;28;20478;-80
2022/10/10 07:04:50;;;;;;;27.00;20.53;;;;;;;18.27;72.51;95720.78;5113954;28;20755;-81
2022/10/10 07:07:17;;;;;;;29.90;22.33;;;;;;;18.29;72.39;95725.13;5113826;28;20441;-80
2022/10/10 07:09:43;;;;;;;23.70;20.03;;;;;;;18.35;73.13;95727.97;5113629;28;20929;-80
2022/10/10 07:12:10;;;;;;;28.77;20.03;;;;;;;18.39;72.39;95723.16;5061003;28;20913;-79
2022/10/10 07:14:37;;;;;;;27.80;20.83;;;;;;;18.32;73.64;95727.44;5113981;28;20442;-79
2022/10/10 07:17:04;;;;;;;23.33;19.33;;;;;;;18.37;74.98;95720.66;5100895;28;20455;-79
2022/10/10 07:19:31;;;;;;;27.07;20.73;;;;;;;18.56;74.48;95730.25;5097217;28;20862;-80
2022/10/10 07:21:59;;;;;;;23.80;20.60;;;;;;;18.57;72.72;95724.78;5092204;28;20509;-79
2022/10/10 07:24:26;;;;;;;23.60;19.00;;;;;;;18.26;73.48;95718.28;5092030;28;20448;-79
2022/10/10 07:26:54;;;;;;;26.93;21.20;;;;;;;18.32;73.54;95712.34;5092922;28;20501;-78
2022/10/10 07:29:21;;;;;;;26.80;16.67;;;;;;;18.46;73.65;95719.72;5094383;28;20455;-79
2022/10/10 07:31:48;;;;;;;26.80;18.40;;;;;;;18.56;73.56;95719.63;5093260;28;20459;-80
2022/10/10 07:34:15;;;;;;;23.30;19.47;;;;;;;18.51;72.60;95719.28;5093101;28;20911;-80
2022/10/10 07:36:42;;;;;;;21.30;18.80;;;;;;;18.60;72.54;95725.44;5092982;28;20841;-79
2022/10/10 07:39:10;;;;;;;27.50;18.63;;;;;;;18.66;72.81;95722.19;5092207;28;20926;-79
2022/10/10 07:41:37;;;;;;;23.90;18.50;;;;;;;18.71;72.83;95718.03;5039746;28;20475;-79
2022/10/10 07:44:04;;;;;;;22.90;17.93;;;;;;;18.87;72.64;95714.63;5094086;28;20472;-79
2022/10/10 07:46:32;;;;;;;26.20;17.33;;;;;;;18.93;70.92;95718.47;5096227;28;20436;-79
2022/10/10 07:48:58;;;;;;;22.40;17.97;;;;;;;18.87;71.45;95717.28;5095949;28;20930;-78
2022/10/10 07:51:25;;;;;;;30.60;16.90;;;;;;;19.01;71.04;95714.00;5095892;28;20480;-78
2022/10/10 07:53:52;;;;;;;20.73;17.07;;;;;;;19.02;70.08;95704.19;5096715;28;20452;-82
2022/10/10 07:56:21;;;;;;;19.93;15.27;;;;;;;19.01;70.50;95708.69;5097025;28;20501;-79
2022/10/10 07:58:47;;;;;;;20.30;14.60;;;;;;;19.05;70.18;95715.34;5096312;28;20448;-78
2022/10/10 08:01:14;;;;;;;24.97;13.00;;;;;;;19.12;70.04;95711.06;5095717;28;20455;-79
2022/10/10 08:03:41;;;;;;;16.40;14.10;;;;;;;18.90;69.62;95709.00;5095785;28;20777;-79
2022/10/10 08:06:10;;;;;;;16.90;13.03;;;;;;;19.05;69.79;95707.34;5096094;28;20440;-78
2022/10/10 08:08:38;;;;;;;16.30;10.97;;;;;;;19.03;68.00;95703.19;5043357;28;20436;-79
2022/10/10 08:11:06;;;;;;;16.53;12.47;;;;;;;19.06;68.40;95698.38;5095825;28;20440;-78
2022/10/10 08:13:35;;;;;;;14.63;12.17;;;;;;;19.18;69.82;95705.09;5095886;28;20454;-79
2022/10/10 08:16:02;;;;;;;14.83;11.73;;;;;;;19.15;69.31;95705.41;5095912;28;20444;-79
2022/10/10 08:18:29;;;;;;;16.43;11.30;;;;;;;19.02;69.76;95705.03;5096366;28;20455;-78
2022/10/10 08:21:00;;;;;;;19.37;13.30;;;;;;;19.01;69.40;95714.00;5095896;28;20440;-80
2022/10/10 08:23:27;;;;;;;15.00;12.37;;;;;;;18.97;69.09;95709.16;5096495;28;20435;-78
2022/10/10 08:25:54;;;;;;;12.57;10.40;;;;;;;19.04;68.83;95712.84;5095739;28;20863;-78
2022/10/10 08:28:20;;;;;;;12.30;11.00;;;;;;;19.17;69.14;95706.06;5094728;28;20448;-78
2022/10/10 08:30:48;;;;;;;15.40;12.00;;;;;;;19.29;67.81;95711.91;5095857;28;20496;-79
2022/10/10 08:33:15;;;;;;;11.83;10.60;;;;;;;19.33;66.70;95713.25;5095102;28;20455;-78
2022/10/10 08:35:42;;;;;;;12.00;9.97;;;;;;;19.32;66.32;95713.41;5094641;28;20447;-79
2022/10/10 08:38:09;;;;;;;15.80;11.57;;;;;;;19.16;67.77;95706.25;5094718;28;20493;-79
2022/10/10 08:40:43;;;;;;;12.87;10.73;;;;;;;19.33;68.49;95709.75;5094206;28;20455;-78
2022/10/10 08:43:15;;;;;;;12.10;10.57;;;;;;;19.44;68.04;95699.63;5095795;28;20487;-78
2022/10/10 08:45:43;;;;;;;13.73;9.87;;;;;;;19.34;66.82;95712.25;5095619;28;21026;-79
2022/10/10 08:48:15;;;;;;;13.90;10.47;;;;;;;19.45;67.56;95717.28;5096091;28;20451;-79
2022/10/10 08:50:46;;;;;;;10.97;9.87;;;;;;;19.55;67.01;95716.31;5095700;28;20451;-78
2022/10/10 08:53:17;;;;;;;10.83;9.73;;;;;;;19.48;64.33;95718.78;5095397;28;20468;-78
2022/10/10 08:55:45;;;;;;;11.10;9.73;;;;;;;19.41;65.21;95720.44;5094854;28;20444;-78
2022/10/10 08:58:20;;;;;;;17.07;10.10;;;;;;;19.53;67.08;95708.50;5095741;28;20954;-78
2022/10/10 09:00:50;;;;;;;12.57;10.30;;;;;;;19.48;65.09;95702.81;5095314;28;20483;-78
2022/10/10 09:03:30;;;;;;;11.57;9.10;;;;;;;19.66;65.35;95703.53;5094507;28;20484;-78
2022/10/10 09:06:15;;;;;;;12.97;9.10;;;;;;;19.86;65.56;95703.16;5094520;28;20452;-78
2022/10/10 09:08:52;;;;;;;11.83;9.70;;;;;;;19.71;63.05;95711.84;5094269;28;20455;-78
2022/10/10 09:11:36;;;;;;;11.33;9.07;;;;;;;19.65;64.15;95707.16;5093983;28;21240;-78
2022/10/10 09:14:14;;;;;;;9.53;8.53;;;;;;;19.75;62.97;95715.00;5093993;28;20440;-79
2022/10/10 09:16:49;;;;;;;8.93;8.10;;;;;;;19.77;62.47;95715.66;5094199;28;20938;-79
2022/10/10 09:19:30;;;;;;;10.20;8.47;;;;;;;19.87;62.61;95716.31;5094030;28;20447;-78
2022/10/10 09:22:01;;;;;;;11.87;9.13;;;;;;;19.94;61.99;95717.31;5093838;28;20479;-78
2022/10/10 09:24:33;;;;;;;9.03;8.10;;;;;;;20.00;61.41;95719.31;5058368;28;20443;-78
2022/10/10 09:27:03;;;;;;;10.67;9.17;;;;;;;19.78;61.74;95712.84;5093708;28;20923;-78
2022/10/10 09:29:37;;;;;;;15.30;8.83;;;;;;;19.83;61.97;95727.47;5093793;28;20483;-78
2022/10/10 09:32:11;;;;;;;11.57;8.60;;;;;;;19.90;61.27;95723.16;5093707;28;20938;-79
2022/10/10 09:34:42;;;;;;;14.00;9.90;;;;;;;19.85;61.69;95722.81;5093617;28;20803;-78
2022/10/10 09:37:14;;;;;;;12.10;8.50;;;;;;;19.94;61.02;95721.81;5093521;28;20830;-78
2022/10/10 09:39:47;;;;;;;12.70;8.17;;;;;;;20.04;61.35;95719.81;5093540;28;20489;-78
2022/10/10 09:42:18;;;;;;;8.47;7.63;;;;;;;19.99;60.93;95730.16;5093481;28;20480;-78
2022/10/10 09:44:45;;;;;;;10.90;9.80;;;;;;;20.11;60.70;95726.97;5093727;28;20866;-79
2022/10/10 09:47:13;;;;;;;9.07;8.03;;;;;;;20.23;60.27;95726.59;5093200;28;20810;-78
2022/10/10 09:49:42;;;;;;;9.77;8.90;;;;;;;20.22;59.62;95727.59;5093212;28;20443;-78
2022/10/10 09:52:23;;;;;;;9.07;8.23;;;;;;;20.24;59.00;95726.47;5093357;28;20471;-78
2022/10/10 09:54:51;;;;;;;9.40;8.50;;;;;;;20.24;58.82;95718.47;5093483;28;20451;-78
2022/10/10 09:57:22;;;;;;;8.40;7.60;;;;;;;20.26;58.59;95720.97;5093537;28;20493;-78
2022/10/10 09:59:49;;;;;;;10.00;8.97;;;;;;;20.23;58.65;95722.09;5093643;28;20452;-78
2022/10/10 10:02:19;;;;;;;8.60;7.70;;;;;;;20.20;58.57;95718.94;5092908;28;20878;-78
2022/10/10 10:04:48;;;;;;;12.33;8.30;;;;;;;20.34;58.34;95710.28;5093082;28;20451;-78
2022/10/10 10:07:26;;;;;;;10.10;8.67;;;;;;;20.38;58.79;95711.59;5093070;28;20443;-78
2022/10/10 10:09:56;;;;;;;8.47;7.67;;;;;;;20.21;58.65;95704.63;5093276;28;20522;-79
2022/10/10 10:12:25;;;;;;;8.77;8.07;;;;;;;20.19;59.78;95703.97;5093131;28;20435;-78
2022/10/10 10:14:57;;;;;;;10.13;8.27;;;;;;;20.33;59.62;95700.63;5093206;28;20447;-78
2022/10/10 10:17:24;;;;;;;11.33;8.57;;;;;;;20.29;59.57;95699.31;5092975;28;20504;-78
2022/10/10 10:19:52;;;;;;;9.00;8.10;;;;;;;20.32;60.18;95707.78;5092543;28;20893;-78
2022/10/10 10:22:34;;;;;;;9.67;8.13;;;;;;;20.32;60.05;95705.13;5092883;28;20836;-78
2022/10/10 10:25:32;;;;;;;9.70;7.40;;;;;;;20.32;59.57;95699.78;5092860;28;20467;-78
2022/10/10 10:28:15;;;;;;;13.33;7.67;;;;;;;20.45;59.84;95695.78;5092956;28;20444;-79
2022/10/10 10:30:43;;;;;;;12.60;9.20;;;;;;;20.48;59.30;95692.78;5092508;28;20443;-78
2022/10/10 10:33:18;;;;;;;13.13;9.80;;;;;;;20.59;59.21;95689.75;5092315;28;20901;-79
2022/10/10 10:35:55;;;;;;;13.97;8.17;;;;;;;20.58;58.72;95698.75;5056444;28;20458;-78
2022/10/10 10:38:32;;;;;;;9.03;8.27;;;;;;;20.48;58.20;95695.44;5092613;28;20451;-78
2022/10/10 10:41:06;;;;;;;11.50;8.50;;;;;;;20.53;58.20;95693.09;5092362;28;20508;-78
2022/10/10 10:43:55;;;;;;;11.00;8.50;;;;;;;20.48;58.77;95690.94;5092298;28;20475;-78
2022/10/10 10:46:32;;;;;;;8.90;7.70;;;;;;;20.55;57.98;95686.59;5091670;28;20439;-79
2022/10/10 10:49:01;;;;;;;9.30;8.33;;;;;;;20.41;58.21;95681.97;5092348;28;20439;-78
2022/10/10 10:52:07;;;;;;;16.60;7.70;;;;;;;20.22;58.44;95688.47;5092026;28;20499;-79
2022/10/10 10:54:46;;;;;;;11.50;8.63;;;;;;;20.27;59.82;95685.31;5092103;28;20845;-78
2022/10/10 10:57:18;;;;;;;9.00;8.10;;;;;;;20.30;59.20;95675.13;5092261;28;20444;-78
2022/10/10 10:59:57;;;;;;;11.20;8.37;;;;;;;20.31;59.43;95687.47;5092354;28;20440;-79
2022/10/10 11:02:36;;;;;;;17.83;9.10;;;;;;;20.32;59.83;95689.13;5092126;28;20483;-78
2022/10/10 11:05:26;;;;;;;8.13;7.37;;;;;;;20.31;59.27;95681.31;5092370;28;20451;-78
2022/10/10 11:08:04;;;;;;;10.93;8.50;;;;;;;20.21;59.22;95685.97;5092154;28;20942;-78
2022/10/10 11:10:38;;;;;;;11.13;8.13;;;;;;;20.17;59.37;95674.00;5092401;28;20444;-77
2022/10/10 11:13:12;;;;;;;9.93;7.90;;;;;;;20.07;59.54;95663.53;5056599;28;20443;-78
2022/10/10 11:15:45;;;;;;;13.67;8.10;;;;;;;20.22;59.62;95661.81;5092269;28;20762;-78
2022/10/10 11:18:17;;;;;;;11.53;7.83;;;;;;;20.30;59.43;95653.00;5092346;28;20443;-78
2022/10/10 11:20:47;;;;;;;10.80;8.67;;;;;;;20.34;59.70;95656.97;5096194;28;20443;-78
2022/10/10 11:23:20;;;;;;;11.07;9.10;;;;;;;20.16;59.78;95657.16;5096148;28;21099;-78
2022/10/10 11:25:50;;;;;;;8.30;7.47;;;;;;;20.15;60.24;95652.84;5060483;28;20435;-78
2022/10/10 11:28:22;;;;;;;10.33;8.77;;;;;;;20.26;60.53;95652.50;5096185;28;20440;-78
2022/10/10 11:30:54;;;;;;;15.30;9.37;;;;;;;20.23;60.03;95652.81;5096447;28;20446;-78